sensor_id;sensor_type;location;lat;lon;timestamp;P1;durP1;ratioP1;P2;durP2;ratioP2
44276;SDS011;29973;43.742;1.236;2024-02-04T00:01:24;50.35;;;18.40;;
44276;SDS011;29973;43.742;1.236;2024-02-04T00:03:50;53.72;;;19.30;;
44276;SDS011;29973;43.742;1.236;2024-02-04T00:06:16;52.17;;;19.33;;
44276;SDS011;29973;43.742;1.236;2024-02-04T00:08:41;49.17;;;20.10;;
44276;SDS011;29973;43.742;1.236;2024-02-04T00:11:07;46.08;;;19.98;;
44276;SDS011;29973;43.742;1.236;2024-02-04T00:13:36;57.83;;;23.20;;
44276;SDS011;29973;43.742;1.236;2024-02-04T00:16:03;42.03;;;19.25;;
44276;SDS011;29973;43.742;1.236;2024-02-04T00:18:29;44.97;;;18.27;;
44276;SDS011;29973;43.742;1.236;2024-02-04T00:20:54;40.47;;;16.17;;
44276;SDS011;29973;43.742;1.236;2024-02-04T00:23:20;36.50;;;15.93;;
44276;SDS011;29973;43.742;1.236;2024-02-04T00:25:46;34.67;;;16.92;;
44276;SDS011;29973;43.742;1.236;2024-02-04T00:28:11;49.70;;;16.75;;
44276;SDS011;29973;43.742;1.236;2024-02-04T00:30:37;42.33;;;16.77;;
44276;SDS011;29973;43.742;1.236;2024-02-04T00:33:03;34.70;;;15.90;;
44276;SDS011;29973;43.742;1.236;2024-02-04T00:35:30;43.38;;;16.83;;
44276;SDS011;29973;43.742;1.236;2024-02-04T00:37:55;32.78;;;16.48;;
44276;SDS011;29973;43.742;1.236;2024-02-04T00:40:23;35.95;;;17.52;;
44276;SDS011;29973;43.742;1.236;2024-02-04T00:42:49;37.90;;;17.17;;
44276;SDS011;29973;43.742;1.236;2024-02-04T00:45:14;39.08;;;17.52;;
44276;SDS011;29973;43.742;1.236;2024-02-04T00:47:41;33.33;;;15.75;;
44276;SDS011;29973;43.742;1.236;2024-02-04T00:50:07;43.30;;;18.13;;
44276;SDS011;29973;43.742;1.236;2024-02-04T00:52:33;67.90;;;18.70;;
44276;SDS011;29973;43.742;1.236;2024-02-04T00:54:58;38.55;;;18.83;;
44276;SDS011;29973;43.742;1.236;2024-02-04T00:57:24;35.83;;;18.65;;
44276;SDS011;29973;43.742;1.236;2024-02-04T00:59:50;49.65;;;18.90;;
44276;SDS011;29973;43.742;1.236;2024-02-04T01:02:16;42.70;;;18.00;;
44276;SDS011;29973;43.742;1.236;2024-02-04T01:04:42;40.83;;;17.77;;
44276;SDS011;29973;43.742;1.236;2024-02-04T01:07:07;66.30;;;17.20;;
44276;SDS011;29973;43.742;1.236;2024-02-04T01:09:33;50.83;;;15.70;;
44276;SDS011;29973;43.742;1.236;2024-02-04T01:11:59;35.55;;;16.88;;
44276;SDS011;29973;43.742;1.236;2024-02-04T01:14:24;37.90;;;16.80;;
44276;SDS011;29973;43.742;1.236;2024-02-04T01:16:50;45.92;;;18.38;;
44276;SDS011;29973;43.742;1.236;2024-02-04T01:19:16;42.22;;;17.40;;
44276;SDS011;29973;43.742;1.236;2024-02-04T01:21:41;55.92;;;17.15;;
44276;SDS011;29973;43.742;1.236;2024-02-04T01:24:09;61.83;;;19.48;;
44276;SDS011;29973;43.742;1.236;2024-02-04T01:26:35;60.83;;;20.35;;
44276;SDS011;29973;43.742;1.236;2024-02-04T01:29:00;39.83;;;18.25;;
44276;SDS011;29973;43.742;1.236;2024-02-04T01:31:26;55.53;;;21.20;;
44276;SDS011;29973;43.742;1.236;2024-02-04T01:33:52;91.18;;;20.55;;
44276;SDS011;29973;43.742;1.236;2024-02-04T01:36:18;88.57;;;17.83;;
44276;SDS011;29973;43.742;1.236;2024-02-04T01:38:43;83.38;;;17.38;;
44276;SDS011;29973;43.742;1.236;2024-02-04T01:41:09;111.38;;;20.17;;
44276;SDS011;29973;43.742;1.236;2024-02-04T01:43:35;104.60;;;20.25;;
44276;SDS011;29973;43.742;1.236;2024-02-04T01:46:01;120.95;;;19.90;;
44276;SDS011;29973;43.742;1.236;2024-02-04T01:48:27;105.15;;;19.92;;
44276;SDS011;29973;43.742;1.236;2024-02-04T01:50:53;52.97;;;18.85;;
44276;SDS011;29973;43.742;1.236;2024-02-04T01:53:21;81.10;;;19.45;;
44276;SDS011;29973;43.742;1.236;2024-02-04T01:55:48;44.67;;;18.20;;
44276;SDS011;29973;43.742;1.236;2024-02-04T01:58:15;55.17;;;20.42;;
44276;SDS011;29973;43.742;1.236;2024-02-04T02:00:41;47.05;;;18.95;;
44276;SDS011;29973;43.742;1.236;2024-02-04T02:03:07;39.92;;;18.30;;
44276;SDS011;29973;43.742;1.236;2024-02-04T02:05:36;79.55;;;21.02;;
44276;SDS011;29973;43.742;1.236;2024-02-04T02:08:02;78.30;;;20.27;;
44276;SDS011;29973;43.742;1.236;2024-02-04T02:10:27;68.35;;;18.95;;
44276;SDS011;29973;43.742;1.236;2024-02-04T02:17:59;72.90;;;20.00;;
44276;SDS011;29973;43.742;1.236;2024-02-04T02:20:32;58.95;;;18.58;;
44276;SDS011;29973;43.742;1.236;2024-02-04T02:23:31;51.85;;;19.92;;
44276;SDS011;29973;43.742;1.236;2024-02-04T02:26:01;96.78;;;20.67;;
44276;SDS011;29973;43.742;1.236;2024-02-04T02:28:28;71.15;;;18.80;;
44276;SDS011;29973;43.742;1.236;2024-02-04T02:30:54;61.20;;;17.63;;
44276;SDS011;29973;43.742;1.236;2024-02-04T02:33:19;85.38;;;19.38;;
44276;SDS011;29973;43.742;1.236;2024-02-04T02:35:46;102.95;;;20.27;;
44276;SDS011;29973;43.742;1.236;2024-02-04T02:40:54;77.28;;;18.42;;
44276;SDS011;29973;43.742;1.236;2024-02-04T02:43:29;91.15;;;18.92;;
44276;SDS011;29973;43.742;1.236;2024-02-04T02:45:55;130.02;;;21.33;;
44276;SDS011;29973;43.742;1.236;2024-02-04T02:48:22;62.97;;;19.50;;
44276;SDS011;29973;43.742;1.236;2024-02-04T02:50:49;83.90;;;19.55;;
44276;SDS011;29973;43.742;1.236;2024-02-04T02:53:14;63.50;;;20.55;;
44276;SDS011;29973;43.742;1.236;2024-02-04T02:55:40;80.75;;;21.55;;
44276;SDS011;29973;43.742;1.236;2024-02-04T02:58:06;57.53;;;20.15;;
44276;SDS011;29973;43.742;1.236;2024-02-04T03:00:32;71.10;;;21.13;;
44276;SDS011;29973;43.742;1.236;2024-02-04T03:02:58;64.05;;;20.08;;
44276;SDS011;29973;43.742;1.236;2024-02-04T03:05:24;52.15;;;19.80;;
44276;SDS011;29973;43.742;1.236;2024-02-04T03:07:50;47.60;;;19.85;;
44276;SDS011;29973;43.742;1.236;2024-02-04T03:10:15;158.40;;;21.75;;
44276;SDS011;29973;43.742;1.236;2024-02-04T03:12:45;53.75;;;18.48;;
44276;SDS011;29973;43.742;1.236;2024-02-04T03:15:10;70.47;;;19.00;;
44276;SDS011;29973;43.742;1.236;2024-02-04T03:17:36;50.88;;;18.58;;
44276;SDS011;29973;43.742;1.236;2024-02-04T03:20:02;74.53;;;19.45;;
44276;SDS011;29973;43.742;1.236;2024-02-04T03:22:28;112.15;;;18.90;;
44276;SDS011;29973;43.742;1.236;2024-02-04T03:24:54;47.63;;;18.73;;
44276;SDS011;29973;43.742;1.236;2024-02-04T03:27:20;132.60;;;18.42;;
44276;SDS011;29973;43.742;1.236;2024-02-04T03:29:46;99.28;;;17.02;;
44276;SDS011;29973;43.742;1.236;2024-02-04T03:32:12;55.78;;;15.57;;
44276;SDS011;29973;43.742;1.236;2024-02-04T03:34:37;62.65;;;15.02;;
44276;SDS011;29973;43.742;1.236;2024-02-04T03:37:04;36.35;;;16.02;;
44276;SDS011;29973;43.742;1.236;2024-02-04T03:39:30;67.10;;;15.40;;
44276;SDS011;29973;43.742;1.236;2024-02-04T03:41:56;47.10;;;16.35;;
44276;SDS011;29973;43.742;1.236;2024-02-04T03:44:22;58.53;;;16.13;;
44276;SDS011;29973;43.742;1.236;2024-02-04T03:46:51;50.15;;;16.67;;
44276;SDS011;29973;43.742;1.236;2024-02-04T03:49:16;62.63;;;16.02;;
44276;SDS011;29973;43.742;1.236;2024-02-04T03:51:43;65.97;;;14.90;;
44276;SDS011;29973;43.742;1.236;2024-02-04T03:54:09;102.50;;;14.90;;
44276;SDS011;29973;43.742;1.236;2024-02-04T03:56:34;76.05;;;14.38;;
44276;SDS011;29973;43.742;1.236;2024-02-04T03:59:00;106.50;;;14.85;;
44276;SDS011;29973;43.742;1.236;2024-02-04T04:01:26;40.97;;;14.55;;
44276;SDS011;29973;43.742;1.236;2024-02-04T04:03:51;73.00;;;16.38;;
44276;SDS011;29973;43.742;1.236;2024-02-04T04:06:17;143.07;;;16.38;;
44276;SDS011;29973;43.742;1.236;2024-02-04T04:08:43;130.50;;;16.80;;
44276;SDS011;29973;43.742;1.236;2024-02-04T04:11:09;116.70;;;16.48;;
44276;SDS011;29973;43.742;1.236;2024-02-04T04:13:35;116.97;;;15.77;;
44276;SDS011;29973;43.742;1.236;2024-02-04T04:16:02;67.93;;;17.23;;
44276;SDS011;29973;43.742;1.236;2024-02-04T04:18:29;66.35;;;15.52;;
44276;SDS011;29973;43.742;1.236;2024-02-04T04:20:54;105.72;;;15.55;;
44276;SDS011;29973;43.742;1.236;2024-02-04T04:23:21;111.15;;;15.20;;
44276;SDS011;29973;43.742;1.236;2024-02-04T04:25:46;119.40;;;15.35;;
44276;SDS011;29973;43.742;1.236;2024-02-04T04:28:12;116.95;;;15.38;;
44276;SDS011;29973;43.742;1.236;2024-02-04T04:30:38;126.38;;;16.17;;
44276;SDS011;29973;43.742;1.236;2024-02-04T04:33:03;122.13;;;16.35;;
44276;SDS011;29973;43.742;1.236;2024-02-04T04:35:29;89.22;;;15.13;;
44276;SDS011;29973;43.742;1.236;2024-02-04T04:37:55;85.88;;;15.88;;
44276;SDS011;29973;43.742;1.236;2024-02-04T04:40:20;75.95;;;14.30;;
44276;SDS011;29973;43.742;1.236;2024-02-04T04:42:46;79.18;;;13.32;;
44276;SDS011;29973;43.742;1.236;2024-02-04T04:45:12;71.03;;;14.07;;
44276;SDS011;29973;43.742;1.236;2024-02-04T04:47:39;80.05;;;15.70;;
44276;SDS011;29973;43.742;1.236;2024-02-04T04:50:05;53.15;;;16.25;;
44276;SDS011;29973;43.742;1.236;2024-02-04T04:52:31;42.53;;;16.15;;
44276;SDS011;29973;43.742;1.236;2024-02-04T04:54:57;64.63;;;17.75;;
44276;SDS011;29973;43.742;1.236;2024-02-04T04:57:22;60.67;;;15.55;;
44276;SDS011;29973;43.742;1.236;2024-02-04T04:59:48;65.68;;;15.27;;
44276;SDS011;29973;43.742;1.236;2024-02-04T05:02:14;66.75;;;17.13;;
44276;SDS011;29973;43.742;1.236;2024-02-04T05:04:43;100.63;;;19.98;;
44276;SDS011;29973;43.742;1.236;2024-02-04T05:07:13;75.90;;;17.42;;
44276;SDS011;29973;43.742;1.236;2024-02-04T05:09:38;53.30;;;16.92;;
44276;SDS011;29973;43.742;1.236;2024-02-04T05:12:04;110.20;;;17.42;;
44276;SDS011;29973;43.742;1.236;2024-02-04T05:14:31;65.05;;;18.45;;
44276;SDS011;29973;43.742;1.236;2024-02-04T05:16:57;55.42;;;18.05;;
44276;SDS011;29973;43.742;1.236;2024-02-04T05:19:22;95.38;;;16.60;;
44276;SDS011;29973;43.742;1.236;2024-02-04T05:21:48;141.23;;;18.27;;
44276;SDS011;29973;43.742;1.236;2024-02-04T05:24:14;85.63;;;16.85;;
44276;SDS011;29973;43.742;1.236;2024-02-04T05:26:39;55.92;;;13.25;;
44276;SDS011;29973;43.742;1.236;2024-02-04T05:29:05;88.28;;;15.38;;
44276;SDS011;29973;43.742;1.236;2024-02-04T05:31:30;91.68;;;18.10;;
44276;SDS011;29973;43.742;1.236;2024-02-04T05:33:56;135.20;;;17.67;;
44276;SDS011;29973;43.742;1.236;2024-02-04T05:36:22;122.80;;;18.40;;
44276;SDS011;29973;43.742;1.236;2024-02-04T05:38:47;109.00;;;16.30;;
44276;SDS011;29973;43.742;1.236;2024-02-04T05:41:13;48.78;;;18.83;;
44276;SDS011;29973;43.742;1.236;2024-02-04T05:43:39;58.90;;;20.95;;
44276;SDS011;29973;43.742;1.236;2024-02-04T05:46:05;80.10;;;20.23;;
44276;SDS011;29973;43.742;1.236;2024-02-04T05:48:30;52.63;;;19.42;;
44276;SDS011;29973;43.742;1.236;2024-02-04T05:50:56;44.15;;;18.15;;
44276;SDS011;29973;43.742;1.236;2024-02-04T05:53:22;73.65;;;19.73;;
44276;SDS011;29973;43.742;1.236;2024-02-04T05:55:47;48.83;;;18.17;;
44276;SDS011;29973;43.742;1.236;2024-02-04T05:58:14;83.25;;;19.38;;
44276;SDS011;29973;43.742;1.236;2024-02-04T06:00:40;49.17;;;16.92;;
44276;SDS011;29973;43.742;1.236;2024-02-04T06:03:06;48.45;;;18.02;;
44276;SDS011;29973;43.742;1.236;2024-02-04T06:05:32;72.70;;;26.95;;
44276;SDS011;29973;43.742;1.236;2024-02-04T06:07:58;47.00;;;17.73;;
44276;SDS011;29973;43.742;1.236;2024-02-04T06:10:23;50.95;;;18.10;;
44276;SDS011;29973;43.742;1.236;2024-02-04T06:12:49;52.40;;;16.83;;
44276;SDS011;29973;43.742;1.236;2024-02-04T06:15:15;37.45;;;16.20;;
44276;SDS011;29973;43.742;1.236;2024-02-04T06:17:41;51.60;;;17.08;;
44276;SDS011;29973;43.742;1.236;2024-02-04T06:20:07;42.28;;;15.18;;
44276;SDS011;29973;43.742;1.236;2024-02-04T06:22:36;47.78;;;14.48;;
44276;SDS011;29973;43.742;1.236;2024-02-04T06:25:02;44.30;;;15.23;;
44276;SDS011;29973;43.742;1.236;2024-02-04T06:27:29;43.33;;;14.65;;
44276;SDS011;29973;43.742;1.236;2024-02-04T06:29:55;36.58;;;11.05;;
44276;SDS011;29973;43.742;1.236;2024-02-04T06:32:21;34.17;;;12.25;;
44276;SDS011;29973;43.742;1.236;2024-02-04T06:34:46;39.55;;;13.60;;
44276;SDS011;29973;43.742;1.236;2024-02-04T06:37:12;40.88;;;13.05;;
44276;SDS011;29973;43.742;1.236;2024-02-04T06:39:38;35.60;;;12.98;;
44276;SDS011;29973;43.742;1.236;2024-02-04T06:42:04;39.92;;;12.27;;
44276;SDS011;29973;43.742;1.236;2024-02-04T06:44:29;35.30;;;13.05;;
44276;SDS011;29973;43.742;1.236;2024-02-04T06:46:57;34.35;;;13.77;;
44276;SDS011;29973;43.742;1.236;2024-02-04T06:49:23;30.13;;;13.57;;
44276;SDS011;29973;43.742;1.236;2024-02-04T06:51:48;41.20;;;14.75;;
44276;SDS011;29973;43.742;1.236;2024-02-04T06:54:15;44.53;;;13.27;;
44276;SDS011;29973;43.742;1.236;2024-02-04T06:56:41;35.53;;;12.23;;
44276;SDS011;29973;43.742;1.236;2024-02-04T06:59:07;35.65;;;14.40;;
44276;SDS011;29973;43.742;1.236;2024-02-04T07:01:32;34.50;;;15.50;;
44276;SDS011;29973;43.742;1.236;2024-02-04T07:03:58;45.80;;;17.63;;
44276;SDS011;29973;43.742;1.236;2024-02-04T07:06:24;62.75;;;23.77;;
44276;SDS011;29973;43.742;1.236;2024-02-04T07:08:49;46.53;;;19.17;;
44276;SDS011;29973;43.742;1.236;2024-02-04T07:11:15;35.10;;;16.33;;
44276;SDS011;29973;43.742;1.236;2024-02-04T07:13:41;57.53;;;16.17;;
44276;SDS011;29973;43.742;1.236;2024-02-04T07:16:07;61.72;;;16.70;;
44276;SDS011;29973;43.742;1.236;2024-02-04T07:18:33;48.60;;;15.43;;
44276;SDS011;29973;43.742;1.236;2024-02-04T07:20:59;44.88;;;15.50;;
44276;SDS011;29973;43.742;1.236;2024-02-04T07:23:24;34.38;;;15.10;;
44276;SDS011;29973;43.742;1.236;2024-02-04T07:25:50;56.42;;;16.95;;
44276;SDS011;29973;43.742;1.236;2024-02-04T07:28:16;39.53;;;15.48;;
44276;SDS011;29973;43.742;1.236;2024-02-04T07:30:41;47.80;;;17.67;;
44276;SDS011;29973;43.742;1.236;2024-02-04T07:33:07;63.92;;;21.65;;
44276;SDS011;29973;43.742;1.236;2024-02-04T07:35:33;40.53;;;14.75;;
44276;SDS011;29973;43.742;1.236;2024-02-04T07:37:59;61.03;;;15.55;;
44276;SDS011;29973;43.742;1.236;2024-02-04T07:40:24;42.65;;;12.80;;
44276;SDS011;29973;43.742;1.236;2024-02-04T07:42:51;53.95;;;13.18;;
44276;SDS011;29973;43.742;1.236;2024-02-04T07:45:18;37.78;;;13.35;;
44276;SDS011;29973;43.742;1.236;2024-02-04T07:47:43;48.05;;;13.65;;
44276;SDS011;29973;43.742;1.236;2024-02-04T07:50:09;44.80;;;14.90;;
44276;SDS011;29973;43.742;1.236;2024-02-04T07:52:35;59.42;;;15.93;;
44276;SDS011;29973;43.742;1.236;2024-02-04T07:55:00;41.88;;;14.82;;
44276;SDS011;29973;43.742;1.236;2024-02-04T07:57:26;34.15;;;15.13;;
44276;SDS011;29973;43.742;1.236;2024-02-04T07:59:52;35.58;;;15.65;;
44276;SDS011;29973;43.742;1.236;2024-02-04T08:02:17;49.30;;;15.15;;
44276;SDS011;29973;43.742;1.236;2024-02-04T08:04:43;55.08;;;15.95;;
44276;SDS011;29973;43.742;1.236;2024-02-04T08:07:09;38.85;;;14.15;;
44276;SDS011;29973;43.742;1.236;2024-02-04T08:09:35;28.92;;;14.25;;
44276;SDS011;29973;43.742;1.236;2024-02-04T08:12:00;36.60;;;15.07;;
44276;SDS011;29973;43.742;1.236;2024-02-04T08:14:26;33.42;;;14.85;;
44276;SDS011;29973;43.742;1.236;2024-02-04T08:16:52;52.08;;;18.00;;
44276;SDS011;29973;43.742;1.236;2024-02-04T08:19:17;61.55;;;19.38;;
44276;SDS011;29973;43.742;1.236;2024-02-04T08:21:43;79.28;;;21.67;;
44276;SDS011;29973;43.742;1.236;2024-02-04T08:24:09;76.45;;;15.77;;
44276;SDS011;29973;43.742;1.236;2024-02-04T08:26:35;102.28;;;16.65;;
44276;SDS011;29973;43.742;1.236;2024-02-04T08:29:01;122.95;;;15.80;;
44276;SDS011;29973;43.742;1.236;2024-02-04T08:31:26;117.55;;;29.08;;
44276;SDS011;29973;43.742;1.236;2024-02-04T08:33:52;140.27;;;24.80;;
44276;SDS011;29973;43.742;1.236;2024-02-04T08:36:18;86.53;;;18.63;;
44276;SDS011;29973;43.742;1.236;2024-02-04T08:38:44;158.45;;;21.08;;
44276;SDS011;29973;43.742;1.236;2024-02-04T08:41:10;55.95;;;16.77;;
44276;SDS011;29973;43.742;1.236;2024-02-04T08:43:35;80.65;;;18.30;;
44276;SDS011;29973;43.742;1.236;2024-02-04T08:46:01;35.88;;;11.07;;
44276;SDS011;29973;43.742;1.236;2024-02-04T08:48:27;39.60;;;12.20;;
44276;SDS011;29973;43.742;1.236;2024-02-04T08:50:53;39.63;;;11.60;;
44276;SDS011;29973;43.742;1.236;2024-02-04T08:53:21;45.90;;;12.10;;
44276;SDS011;29973;43.742;1.236;2024-02-04T08:55:48;40.10;;;12.73;;
44276;SDS011;29973;43.742;1.236;2024-02-04T08:58:14;32.00;;;10.82;;
44276;SDS011;29973;43.742;1.236;2024-02-04T09:00:40;30.70;;;12.80;;
44276;SDS011;29973;43.742;1.236;2024-02-04T09:03:06;32.28;;;12.00;;
44276;SDS011;29973;43.742;1.236;2024-02-04T09:05:32;31.70;;;13.27;;
44276;SDS011;29973;43.742;1.236;2024-02-04T09:07:58;31.20;;;13.88;;
44276;SDS011;29973;43.742;1.236;2024-02-04T09:10:23;26.48;;;11.43;;
44276;SDS011;29973;43.742;1.236;2024-02-04T09:12:49;23.88;;;10.10;;
44276;SDS011;29973;43.742;1.236;2024-02-04T09:15:15;20.77;;;10.13;;
44276;SDS011;29973;43.742;1.236;2024-02-04T09:17:41;25.70;;;13.88;;
44276;SDS011;29973;43.742;1.236;2024-02-04T09:20:06;25.52;;;11.30;;
44276;SDS011;29973;43.742;1.236;2024-02-04T09:22:33;19.00;;;10.93;;
44276;SDS011;29973;43.742;1.236;2024-02-04T09:24:58;18.58;;;10.70;;
44276;SDS011;29973;43.742;1.236;2024-02-04T09:27:24;21.77;;;11.25;;
44276;SDS011;29973;43.742;1.236;2024-02-04T09:29:50;19.52;;;11.18;;
44276;SDS011;29973;43.742;1.236;2024-02-04T09:32:16;21.05;;;11.70;;
44276;SDS011;29973;43.742;1.236;2024-02-04T09:34:42;30.38;;;11.95;;
44276;SDS011;29973;43.742;1.236;2024-02-04T09:37:08;23.25;;;11.18;;
44276;SDS011;29973;43.742;1.236;2024-02-04T09:39:34;20.13;;;11.23;;
44276;SDS011;29973;43.742;1.236;2024-02-04T09:42:00;22.95;;;10.88;;
44276;SDS011;29973;43.742;1.236;2024-02-04T09:44:26;28.25;;;12.88;;
44276;SDS011;29973;43.742;1.236;2024-02-04T09:46:53;27.80;;;12.10;;
44276;SDS011;29973;43.742;1.236;2024-02-04T09:49:20;24.85;;;12.73;;
44276;SDS011;29973;43.742;1.236;2024-02-04T09:51:47;25.77;;;11.60;;
44276;SDS011;29973;43.742;1.236;2024-02-04T09:54:13;27.23;;;12.10;;
44276;SDS011;29973;43.742;1.236;2024-02-04T09:56:41;29.15;;;12.57;;
44276;SDS011;29973;43.742;1.236;2024-02-04T09:59:07;29.55;;;12.55;;
44276;SDS011;29973;43.742;1.236;2024-02-04T10:01:33;22.20;;;11.50;;
44276;SDS011;29973;43.742;1.236;2024-02-04T10:04:01;23.10;;;11.57;;
44276;SDS011;29973;43.742;1.236;2024-02-04T10:06:26;27.80;;;10.25;;
44276;SDS011;29973;43.742;1.236;2024-02-04T10:08:52;30.77;;;12.18;;
44276;SDS011;29973;43.742;1.236;2024-02-04T10:11:18;25.52;;;11.20;;
44276;SDS011;29973;43.742;1.236;2024-02-04T10:16:13;24.80;;;11.50;;
44276;SDS011;29973;43.742;1.236;2024-02-04T10:18:46;29.70;;;13.88;;
44276;SDS011;29973;43.742;1.236;2024-02-04T10:21:19;22.50;;;13.60;;
44276;SDS011;29973;43.742;1.236;2024-02-04T10:23:49;23.23;;;13.57;;
44276;SDS011;29973;43.742;1.236;2024-02-04T10:26:16;21.25;;;12.32;;
44276;SDS011;29973;43.742;1.236;2024-02-04T10:28:44;24.90;;;13.30;;
44276;SDS011;29973;43.742;1.236;2024-02-04T10:31:11;31.23;;;15.27;;
44276;SDS011;29973;43.742;1.236;2024-02-04T10:33:38;23.67;;;13.75;;
44276;SDS011;29973;43.742;1.236;2024-02-04T10:36:04;28.27;;;14.10;;
44276;SDS011;29973;43.742;1.236;2024-02-04T10:38:30;25.77;;;14.15;;
44276;SDS011;29973;43.742;1.236;2024-02-04T10:40:58;58.60;;;14.02;;
44276;SDS011;29973;43.742;1.236;2024-02-04T10:43:27;19.45;;;11.65;;
44276;SDS011;29973;43.742;1.236;2024-02-04T10:45:57;24.75;;;13.88;;
44276;SDS011;29973;43.742;1.236;2024-02-04T10:48:36;20.67;;;12.45;;
44276;SDS011;29973;43.742;1.236;2024-02-04T10:51:13;20.50;;;11.57;;
44276;SDS011;29973;43.742;1.236;2024-02-04T10:53:44;21.70;;;12.32;;
44276;SDS011;29973;43.742;1.236;2024-02-04T10:56:14;21.17;;;11.80;;
44276;SDS011;29973;43.742;1.236;2024-02-04T10:58:46;22.63;;;12.15;;
44276;SDS011;29973;43.742;1.236;2024-02-04T11:01:12;20.75;;;12.60;;
44276;SDS011;29973;43.742;1.236;2024-02-04T11:03:39;23.20;;;13.30;;
44276;SDS011;29973;43.742;1.236;2024-02-04T11:06:05;23.50;;;13.45;;
44276;SDS011;29973;43.742;1.236;2024-02-04T11:08:34;24.80;;;13.52;;
44276;SDS011;29973;43.742;1.236;2024-02-04T11:11:00;22.30;;;11.50;;
44276;SDS011;29973;43.742;1.236;2024-02-04T11:13:25;19.25;;;11.90;;
44276;SDS011;29973;43.742;1.236;2024-02-04T11:15:53;26.23;;;12.73;;
44276;SDS011;29973;43.742;1.236;2024-02-04T11:21:17;20.95;;;12.30;;
44276;SDS011;29973;43.742;1.236;2024-02-04T11:24:04;23.65;;;12.85;;
44276;SDS011;29973;43.742;1.236;2024-02-04T11:26:33;21.98;;;13.50;;
44276;SDS011;29973;43.742;1.236;2024-02-04T11:29:00;21.00;;;12.70;;
44276;SDS011;29973;43.742;1.236;2024-02-04T11:31:28;21.95;;;13.45;;
44276;SDS011;29973;43.742;1.236;2024-02-04T11:33:55;21.23;;;13.23;;
44276;SDS011;29973;43.742;1.236;2024-02-04T11:36:24;22.92;;;13.70;;
44276;SDS011;29973;43.742;1.236;2024-02-04T11:38:50;20.13;;;12.48;;
44276;SDS011;29973;43.742;1.236;2024-02-04T11:41:23;22.65;;;13.70;;
44276;SDS011;29973;43.742;1.236;2024-02-04T11:43:53;23.75;;;13.63;;
44276;SDS011;29973;43.742;1.236;2024-02-04T11:46:21;25.58;;;14.43;;
44276;SDS011;29973;43.742;1.236;2024-02-04T11:48:53;26.40;;;15.00;;
44276;SDS011;29973;43.742;1.236;2024-02-04T11:51:21;28.90;;;18.20;;
44276;SDS011;29973;43.742;1.236;2024-02-04T11:53:49;30.70;;;16.88;;
44276;SDS011;29973;43.742;1.236;2024-02-04T11:56:15;30.60;;;15.32;;
44276;SDS011;29973;43.742;1.236;2024-02-04T11:58:43;27.63;;;15.77;;
44276;SDS011;29973;43.742;1.236;2024-02-04T12:01:09;24.05;;;13.38;;
44276;SDS011;29973;43.742;1.236;2024-02-04T12:03:36;24.80;;;14.80;;
44276;SDS011;29973;43.742;1.236;2024-02-04T12:06:02;26.10;;;14.43;;
44276;SDS011;29973;43.742;1.236;2024-02-04T12:08:29;25.63;;;15.65;;
44276;SDS011;29973;43.742;1.236;2024-02-04T12:10:57;23.63;;;14.82;;
44276;SDS011;29973;43.742;1.236;2024-02-04T12:13:24;25.92;;;15.32;;
44276;SDS011;29973;43.742;1.236;2024-02-04T12:15:50;25.58;;;14.50;;
44276;SDS011;29973;43.742;1.236;2024-02-04T12:18:16;31.70;;;15.43;;
44276;SDS011;29973;43.742;1.236;2024-02-04T12:20:45;27.20;;;16.23;;
44276;SDS011;29973;43.742;1.236;2024-02-04T12:23:18;30.65;;;16.15;;
44276;SDS011;29973;43.742;1.236;2024-02-04T12:25:44;28.80;;;16.90;;
44276;SDS011;29973;43.742;1.236;2024-02-04T12:28:10;30.73;;;17.25;;
44276;SDS011;29973;43.742;1.236;2024-02-04T12:30:35;28.02;;;17.90;;
44276;SDS011;29973;43.742;1.236;2024-02-04T12:33:06;26.48;;;16.33;;
44276;SDS011;29973;43.742;1.236;2024-02-04T12:35:33;30.95;;;16.98;;
44276;SDS011;29973;43.742;1.236;2024-02-04T12:38:00;32.55;;;17.40;;
44276;SDS011;29973;43.742;1.236;2024-02-04T12:40:29;29.60;;;15.85;;
44276;SDS011;29973;43.742;1.236;2024-02-04T12:42:56;28.40;;;14.90;;
44276;SDS011;29973;43.742;1.236;2024-02-04T12:45:26;28.80;;;15.90;;
44276;SDS011;29973;43.742;1.236;2024-02-04T12:47:53;26.42;;;15.35;;
44276;SDS011;29973;43.742;1.236;2024-02-04T12:50:20;23.75;;;14.77;;
44276;SDS011;29973;43.742;1.236;2024-02-04T12:53:02;24.50;;;14.45;;
44276;SDS011;29973;43.742;1.236;2024-02-04T12:55:28;24.48;;;14.90;;
44276;SDS011;29973;43.742;1.236;2024-02-04T13:00:35;24.60;;;14.55;;
44276;SDS011;29973;43.742;1.236;2024-02-04T13:03:02;24.83;;;15.15;;
44276;SDS011;29973;43.742;1.236;2024-02-04T13:05:28;22.90;;;13.55;;
44276;SDS011;29973;43.742;1.236;2024-02-04T13:07:56;25.48;;;14.25;;
44276;SDS011;29973;43.742;1.236;2024-02-04T13:10:26;25.25;;;14.73;;
44276;SDS011;29973;43.742;1.236;2024-02-04T13:13:07;25.58;;;14.43;;
44276;SDS011;29973;43.742;1.236;2024-02-04T13:15:37;25.23;;;13.82;;
44276;SDS011;29973;43.742;1.236;2024-02-04T13:18:04;25.58;;;14.85;;
44276;SDS011;29973;43.742;1.236;2024-02-04T13:20:31;25.38;;;14.13;;
44276;SDS011;29973;43.742;1.236;2024-02-04T13:22:57;27.13;;;14.35;;
44276;SDS011;29973;43.742;1.236;2024-02-04T13:25:25;26.33;;;14.82;;
44276;SDS011;29973;43.742;1.236;2024-02-04T13:27:51;23.55;;;13.93;;
44276;SDS011;29973;43.742;1.236;2024-02-04T13:30:17;25.65;;;15.35;;
44276;SDS011;29973;43.742;1.236;2024-02-04T13:32:44;23.55;;;13.52;;
44276;SDS011;29973;43.742;1.236;2024-02-04T13:35:10;24.45;;;14.25;;
44276;SDS011;29973;43.742;1.236;2024-02-04T13:37:39;22.00;;;13.00;;
44276;SDS011;29973;43.742;1.236;2024-02-04T13:40:06;26.17;;;15.55;;
44276;SDS011;29973;43.742;1.236;2024-02-04T13:42:34;24.35;;;14.10;;
44276;SDS011;29973;43.742;1.236;2024-02-04T13:45:00;25.17;;;14.50;;
44276;SDS011;29973;43.742;1.236;2024-02-04T13:47:27;27.23;;;15.45;;
44276;SDS011;29973;43.742;1.236;2024-02-04T13:49:54;22.50;;;13.63;;
44276;SDS011;29973;43.742;1.236;2024-02-04T13:52:20;24.75;;;14.85;;
44276;SDS011;29973;43.742;1.236;2024-02-04T13:54:46;24.10;;;14.23;;
44276;SDS011;29973;43.742;1.236;2024-02-04T13:57:12;26.42;;;14.55;;
44276;SDS011;29973;43.742;1.236;2024-02-04T13:59:38;25.63;;;15.48;;
44276;SDS011;29973;43.742;1.236;2024-02-04T14:02:04;21.15;;;13.63;;
44276;SDS011;29973;43.742;1.236;2024-02-04T14:04:30;26.48;;;14.10;;
44276;SDS011;29973;43.742;1.236;2024-02-04T14:06:56;25.63;;;14.38;;
44276;SDS011;29973;43.742;1.236;2024-02-04T14:09:22;27.50;;;15.98;;
44276;SDS011;29973;43.742;1.236;2024-02-04T14:11:48;25.67;;;15.73;;
44276;SDS011;29973;43.742;1.236;2024-02-04T14:14:14;23.65;;;13.57;;
44276;SDS011;29973;43.742;1.236;2024-02-04T14:16:40;24.45;;;15.18;;
44276;SDS011;29973;43.742;1.236;2024-02-04T14:19:05;24.10;;;14.30;;
44276;SDS011;29973;43.742;1.236;2024-02-04T14:21:31;25.30;;;13.95;;
44276;SDS011;29973;43.742;1.236;2024-02-04T14:23:57;28.05;;;15.10;;
44276;SDS011;29973;43.742;1.236;2024-02-04T14:26:23;25.85;;;14.25;;
44276;SDS011;29973;43.742;1.236;2024-02-04T14:28:48;23.90;;;13.50;;
44276;SDS011;29973;43.742;1.236;2024-02-04T14:31:14;28.38;;;14.73;;
44276;SDS011;29973;43.742;1.236;2024-02-04T14:33:40;26.67;;;15.25;;